sensor_id;sensor_type;location;lat;lon;timestamp;P1;durP1;ratioP1;P2;durP2;ratioP2
55312;SDS011;46892;45.668;11.756;2023-08-20T00:02:08;15.73;;;14.13;;
55312;SDS011;46892;45.668;11.756;2023-08-20T00:04:35;14.35;;;12.75;;
55312;SDS011;46892;45.668;11.756;2023-08-20T00:07:02;17.83;;;15.43;;
55312;SDS011;46892;45.668;11.756;2023-08-20T00:09:28;16.80;;;14.75;;
55312;SDS011;46892;45.668;11.756;2023-08-20T00:11:55;17.08;;;15.38;;
55312;SDS011;46892;45.668;11.756;2023-08-20T00:14:21;16.83;;;14.20;;
55312;SDS011;46892;45.668;11.756;2023-08-20T00:17:21;14.95;;;13.45;;
55312;SDS011;46892;45.668;11.756;2023-08-20T00:19:49;15.25;;;13.65;;
55312;SDS011;46892;45.668;11.756;2023-08-20T00:22:16;15.57;;;13.98;;
55312;SDS011;46892;45.668;11.756;2023-08-20T00:24:42;14.60;;;13.13;;
55312;SDS011;46892;45.668;11.756;2023-08-20T00:27:08;15.68;;;13.93;;
55312;SDS011;46892;45.668;11.756;2023-08-20T00:29:34;14.50;;;13.05;;
55312;SDS011;46892;45.668;11.756;2023-08-20T00:31:59;15.18;;;13.52;;
55312;SDS011;46892;45.668;11.756;2023-08-20T00:34:25;16.63;;;14.80;;
55312;SDS011;46892;45.668;11.756;2023-08-20T00:36:51;16.70;;;15.00;;
55312;SDS011;46892;45.668;11.756;2023-08-20T00:39:16;18.33;;;16.42;;
55312;SDS011;46892;45.668;11.756;2023-08-20T00:41:42;17.88;;;15.75;;
55312;SDS011;46892;45.668;11.756;2023-08-20T00:44:08;18.05;;;16.10;;
55312;SDS011;46892;45.668;11.756;2023-08-20T00:46:34;16.17;;;14.00;;
55312;SDS011;46892;45.668;11.756;2023-08-20T00:48:59;18.42;;;14.75;;
55312;SDS011;46892;45.668;11.756;2023-08-20T00:51:25;17.90;;;15.68;;
55312;SDS011;46892;45.668;11.756;2023-08-20T00:53:51;17.10;;;14.95;;
55312;SDS011;46892;45.668;11.756;2023-08-20T00:56:17;15.93;;;14.25;;
55312;SDS011;46892;45.668;11.756;2023-08-20T00:58:42;15.88;;;14.02;;
55312;SDS011;46892;45.668;11.756;2023-08-20T01:01:09;14.95;;;13.35;;
55312;SDS011;46892;45.668;11.756;2023-08-20T01:03:35;16.65;;;13.90;;
55312;SDS011;46892;45.668;11.756;2023-08-20T01:06:20;14.73;;;12.88;;
55312;SDS011;46892;45.668;11.756;2023-08-20T01:09:01;14.73;;;13.02;;
55312;SDS011;46892;45.668;11.756;2023-08-20T01:14:16;14.60;;;13.10;;
55312;SDS011;46892;45.668;11.756;2023-08-20T01:16:42;16.58;;;13.15;;
55312;SDS011;46892;45.668;11.756;2023-08-20T01:19:11;14.55;;;12.57;;
55312;SDS011;46892;45.668;11.756;2023-08-20T01:21:53;15.25;;;12.00;;
55312;SDS011;46892;45.668;11.756;2023-08-20T01:30:54;16.33;;;13.45;;
55312;SDS011;46892;45.668;11.756;2023-08-20T01:33:22;14.38;;;12.93;;
55312;SDS011;46892;45.668;11.756;2023-08-20T01:35:49;15.95;;;14.40;;
55312;SDS011;46892;45.668;11.756;2023-08-20T01:38:17;14.25;;;12.85;;
55312;SDS011;46892;45.668;11.756;2023-08-20T01:40:43;16.33;;;14.10;;
55312;SDS011;46892;45.668;11.756;2023-08-20T01:43:09;14.93;;;13.35;;
55312;SDS011;46892;45.668;11.756;2023-08-20T01:45:35;15.68;;;14.07;;
55312;SDS011;46892;45.668;11.756;2023-08-20T01:48:01;15.82;;;14.15;;
55312;SDS011;46892;45.668;11.756;2023-08-20T01:50:27;15.07;;;13.02;;
55312;SDS011;46892;45.668;11.756;2023-08-20T01:52:52;18.10;;;14.30;;
55312;SDS011;46892;45.668;11.756;2023-08-20T01:55:18;14.50;;;12.32;;
55312;SDS011;46892;45.668;11.756;2023-08-20T01:57:44;14.70;;;13.20;;
55312;SDS011;46892;45.668;11.756;2023-08-20T02:00:09;15.25;;;13.68;;
55312;SDS011;46892;45.668;11.756;2023-08-20T02:02:36;13.98;;;12.52;;
55312;SDS011;46892;45.668;11.756;2023-08-20T02:05:01;14.60;;;13.10;;
55312;SDS011;46892;45.668;11.756;2023-08-20T02:07:28;16.50;;;14.02;;
55312;SDS011;46892;45.668;11.756;2023-08-20T02:09:53;16.63;;;13.77;;
55312;SDS011;46892;45.668;11.756;2023-08-20T02:12:19;15.02;;;13.43;;
55312;SDS011;46892;45.668;11.756;2023-08-20T02:14:45;15.07;;;13.00;;
55312;SDS011;46892;45.668;11.756;2023-08-20T02:17:11;15.57;;;13.43;;
55312;SDS011;46892;45.668;11.756;2023-08-20T02:19:37;13.98;;;12.60;;
55312;SDS011;46892;45.668;11.756;2023-08-20T02:22:03;14.93;;;13.13;;
55312;SDS011;46892;45.668;11.756;2023-08-20T02:24:29;16.08;;;13.20;;
55312;SDS011;46892;45.668;11.756;2023-08-20T02:26:55;14.77;;;13.00;;
55312;SDS011;46892;45.668;11.756;2023-08-20T02:29:21;14.13;;;12.63;;
55312;SDS011;46892;45.668;11.756;2023-08-20T02:31:47;14.57;;;12.57;;
55312;SDS011;46892;45.668;11.756;2023-08-20T02:34:13;14.10;;;12.70;;
55312;SDS011;46892;45.668;11.756;2023-08-20T02:36:39;13.70;;;12.30;;
55312;SDS011;46892;45.668;11.756;2023-08-20T02:39:04;14.55;;;12.70;;
55312;SDS011;46892;45.668;11.756;2023-08-20T02:41:33;13.02;;;11.63;;
55312;SDS011;46892;45.668;11.756;2023-08-20T02:44:00;13.52;;;12.23;;
55312;SDS011;46892;45.668;11.756;2023-08-20T02:46:27;15.73;;;12.45;;
55312;SDS011;46892;45.668;11.756;2023-08-20T02:48:52;14.13;;;12.07;;
55312;SDS011;46892;45.668;11.756;2023-08-20T02:51:18;15.85;;;12.27;;
55312;SDS011;46892;45.668;11.756;2023-08-20T02:53:44;12.88;;;11.57;;
55312;SDS011;46892;45.668;11.756;2023-08-20T02:56:09;12.63;;;11.35;;
55312;SDS011;46892;45.668;11.756;2023-08-20T02:58:35;14.95;;;12.27;;
55312;SDS011;46892;45.668;11.756;2023-08-20T03:01:01;12.93;;;11.52;;
55312;SDS011;46892;45.668;11.756;2023-08-20T03:03:27;12.43;;;10.52;;
55312;SDS011;46892;45.668;11.756;2023-08-20T03:05:53;13.82;;;11.55;;
55312;SDS011;46892;45.668;11.756;2023-08-20T03:08:19;13.63;;;11.75;;
55312;SDS011;46892;45.668;11.756;2023-08-20T03:10:45;12.68;;;11.00;;
55312;SDS011;46892;45.668;11.756;2023-08-20T03:13:10;11.57;;;10.15;;
55312;SDS011;46892;45.668;11.756;2023-08-20T03:15:36;11.20;;;10.00;;
55312;SDS011;46892;45.668;11.756;2023-08-20T03:18:02;11.93;;;10.65;;
55312;SDS011;46892;45.668;11.756;2023-08-20T03:20:28;13.02;;;10.30;;
55312;SDS011;46892;45.668;11.756;2023-08-20T03:22:56;12.23;;;10.90;;
55312;SDS011;46892;45.668;11.756;2023-08-20T03:25:22;11.43;;;10.30;;
55312;SDS011;46892;45.668;11.756;2023-08-20T03:27:49;11.02;;;9.90;;
55312;SDS011;46892;45.668;11.756;2023-08-20T03:30:16;11.45;;;10.25;;
55312;SDS011;46892;45.668;11.756;2023-08-20T03:32:42;12.77;;;10.60;;
55312;SDS011;46892;45.668;11.756;2023-08-20T03:35:08;10.98;;;9.68;;
55312;SDS011;46892;45.668;11.756;2023-08-20T03:37:34;14.85;;;10.95;;
55312;SDS011;46892;45.668;11.756;2023-08-20T03:40:00;14.27;;;10.77;;
55312;SDS011;46892;45.668;11.756;2023-08-20T03:42:26;11.25;;;10.05;;
55312;SDS011;46892;45.668;11.756;2023-08-20T03:44:51;12.75;;;10.10;;
55312;SDS011;46892;45.668;11.756;2023-08-20T03:47:17;13.25;;;11.32;;
55312;SDS011;46892;45.668;11.756;2023-08-20T03:49:46;15.73;;;10.93;;
55312;SDS011;46892;45.668;11.756;2023-08-20T03:52:13;12.57;;;10.20;;
55312;SDS011;46892;45.668;11.756;2023-08-20T03:54:39;11.95;;;10.52;;
55312;SDS011;46892;45.668;11.756;2023-08-20T03:57:04;11.77;;;10.50;;
55312;SDS011;46892;45.668;11.756;2023-08-20T03:59:30;11.25;;;10.10;;
55312;SDS011;46892;45.668;11.756;2023-08-20T04:01:56;12.23;;;10.30;;
55312;SDS011;46892;45.668;11.756;2023-08-20T04:04:22;10.70;;;9.60;;
55312;SDS011;46892;45.668;11.756;2023-08-20T04:06:48;11.13;;;9.70;;
55312;SDS011;46892;45.668;11.756;2023-08-20T04:09:14;12.07;;;9.52;;
55312;SDS011;46892;45.668;11.756;2023-08-20T04:11:39;11.07;;;9.88;;
55312;SDS011;46892;45.668;11.756;2023-08-20T04:14:05;13.23;;;9.85;;
55312;SDS011;46892;45.668;11.756;2023-08-20T04:16:31;14.85;;;9.95;;
55312;SDS011;46892;45.668;11.756;2023-08-20T04:18:56;12.13;;;10.20;;
55312;SDS011;46892;45.668;11.756;2023-08-20T04:21:22;11.35;;;10.25;;
55312;SDS011;46892;45.668;11.756;2023-08-20T04:23:48;15.20;;;10.55;;
55312;SDS011;46892;45.668;11.756;2023-08-20T04:26:14;12.07;;;10.25;;
55312;SDS011;46892;45.668;11.756;2023-08-20T04:28:40;12.52;;;10.20;;
55312;SDS011;46892;45.668;11.756;2023-08-20T04:31:05;11.77;;;10.35;;
55312;SDS011;46892;45.668;11.756;2023-08-20T04:33:31;12.70;;;10.65;;
55312;SDS011;46892;45.668;11.756;2023-08-20T04:35:57;12.55;;;10.93;;
55312;SDS011;46892;45.668;11.756;2023-08-20T04:38:23;13.05;;;11.45;;
55312;SDS011;46892;45.668;11.756;2023-08-20T04:40:49;13.18;;;10.80;;
55312;SDS011;46892;45.668;11.756;2023-08-20T04:43:15;12.40;;;10.95;;
55312;SDS011;46892;45.668;11.756;2023-08-20T04:45:41;11.68;;;10.48;;
55312;SDS011;46892;45.668;11.756;2023-08-20T04:48:07;12.25;;;10.98;;
55312;SDS011;46892;45.668;11.756;2023-08-20T04:50:32;12.15;;;10.95;;
55312;SDS011;46892;45.668;11.756;2023-08-20T04:52:58;12.68;;;11.38;;
55312;SDS011;46892;45.668;11.756;2023-08-20T04:55:25;13.40;;;11.50;;
55312;SDS011;46892;45.668;11.756;2023-08-20T04:57:51;12.48;;;11.18;;
55312;SDS011;46892;45.668;11.756;2023-08-20T05:00:17;13.52;;;11.13;;
55312;SDS011;46892;45.668;11.756;2023-08-20T05:02:43;13.65;;;11.02;;
55312;SDS011;46892;45.668;11.756;2023-08-20T05:05:09;12.82;;;10.75;;
55312;SDS011;46892;45.668;11.756;2023-08-20T05:07:35;12.63;;;11.10;;
55312;SDS011;46892;45.668;11.756;2023-08-20T05:10:01;15.82;;;10.77;;
55312;SDS011;46892;45.668;11.756;2023-08-20T05:12:27;14.85;;;10.93;;
55312;SDS011;46892;45.668;11.756;2023-08-20T05:14:53;15.00;;;10.55;;
55312;SDS011;46892;45.668;11.756;2023-08-20T05:17:19;22.08;;;10.77;;
55312;SDS011;46892;45.668;11.756;2023-08-20T05:19:45;17.55;;;10.38;;
55312;SDS011;46892;45.668;11.756;2023-08-20T05:22:10;19.48;;;10.38;;
55312;SDS011;46892;45.668;11.756;2023-08-20T05:24:37;14.77;;;10.50;;
55312;SDS011;46892;45.668;11.756;2023-08-20T05:27:06;13.77;;;10.80;;
55312;SDS011;46892;45.668;11.756;2023-08-20T05:29:39;18.52;;;10.27;;
55312;SDS011;46892;45.668;11.756;2023-08-20T05:32:06;12.85;;;10.63;;
55312;SDS011;46892;45.668;11.756;2023-08-20T05:34:32;16.80;;;10.18;;
55312;SDS011;46892;45.668;11.756;2023-08-20T05:36:59;13.20;;;10.73;;
55312;SDS011;46892;45.668;11.756;2023-08-20T05:39:25;14.25;;;10.18;;
55312;SDS011;46892;45.668;11.756;2023-08-20T05:41:52;14.05;;;9.98;;
55312;SDS011;46892;45.668;11.756;2023-08-20T05:44:18;16.88;;;10.57;;
55312;SDS011;46892;45.668;11.756;2023-08-20T05:46:44;14.18;;;10.43;;
55312;SDS011;46892;45.668;11.756;2023-08-20T05:49:09;13.30;;;9.70;;
55312;SDS011;46892;45.668;11.756;2023-08-20T05:51:35;11.63;;;10.18;;
55312;SDS011;46892;45.668;11.756;2023-08-20T05:54:01;11.93;;;9.75;;
55312;SDS011;46892;45.668;11.756;2023-08-20T05:56:26;12.68;;;9.40;;
55312;SDS011;46892;45.668;11.756;2023-08-20T05:58:52;10.68;;;8.90;;
55312;SDS011;46892;45.668;11.756;2023-08-20T06:01:18;11.18;;;9.35;;
55312;SDS011;46892;45.668;11.756;2023-08-20T06:03:44;12.55;;;8.98;;
55312;SDS011;46892;45.668;11.756;2023-08-20T06:06:09;11.68;;;8.98;;
55312;SDS011;46892;45.668;11.756;2023-08-20T06:08:35;12.52;;;8.98;;
55312;SDS011;46892;45.668;11.756;2023-08-20T06:11:01;12.13;;;9.18;;
55312;SDS011;46892;45.668;11.756;2023-08-20T06:13:26;13.73;;;9.85;;
55312;SDS011;46892;45.668;11.756;2023-08-20T06:15:52;11.32;;;8.88;;
55312;SDS011;46892;45.668;11.756;2023-08-20T06:18:18;12.02;;;9.07;;
55312;SDS011;46892;45.668;11.756;2023-08-20T06:20:44;10.95;;;8.73;;
55312;SDS011;46892;45.668;11.756;2023-08-20T06:23:09;10.02;;;8.98;;
55312;SDS011;46892;45.668;11.756;2023-08-20T06:25:35;10.32;;;8.63;;
55312;SDS011;46892;45.668;11.756;2023-08-20T06:28:01;16.15;;;8.98;;
55312;SDS011;46892;45.668;11.756;2023-08-20T06:30:26;14.40;;;7.47;;
55312;SDS011;46892;45.668;11.756;2023-08-20T06:32:52;11.40;;;8.38;;
55312;SDS011;46892;45.668;11.756;2023-08-20T06:35:18;10.95;;;8.43;;
55312;SDS011;46892;45.668;11.756;2023-08-20T06:37:43;16.75;;;8.80;;
55312;SDS011;46892;45.668;11.756;2023-08-20T06:40:09;10.30;;;7.80;;
55312;SDS011;46892;45.668;11.756;2023-08-20T06:42:35;9.18;;;8.25;;
55312;SDS011;46892;45.668;11.756;2023-08-20T06:45:01;11.88;;;8.13;;
55312;SDS011;46892;45.668;11.756;2023-08-20T06:47:27;11.10;;;7.80;;
55312;SDS011;46892;45.668;11.756;2023-08-20T06:49:52;13.00;;;8.10;;
55312;SDS011;46892;45.668;11.756;2023-08-20T06:52:18;12.63;;;8.27;;
55312;SDS011;46892;45.668;11.756;2023-08-20T06:54:44;9.07;;;7.40;;
55312;SDS011;46892;45.668;11.756;2023-08-20T06:57:10;10.93;;;7.97;;
55312;SDS011;46892;45.668;11.756;2023-08-20T06:59:36;12.15;;;7.75;;
55312;SDS011;46892;45.668;11.756;2023-08-20T07:02:02;9.07;;;8.05;;
55312;SDS011;46892;45.668;11.756;2023-08-20T07:04:28;9.02;;;7.93;;
55312;SDS011;46892;45.668;11.756;2023-08-20T07:06:54;9.27;;;8.25;;
55312;SDS011;46892;45.668;11.756;2023-08-20T07:09:20;8.75;;;7.85;;
55312;SDS011;46892;45.668;11.756;2023-08-20T07:11:46;9.15;;;7.75;;
55312;SDS011;46892;45.668;11.756;2023-08-20T07:14:11;10.30;;;8.25;;
55312;SDS011;46892;45.668;11.756;2023-08-20T07:16:37;9.10;;;7.70;;
55312;SDS011;46892;45.668;11.756;2023-08-20T07:19:03;10.00;;;7.43;;
55312;SDS011;46892;45.668;11.756;2023-08-20T07:21:28;12.23;;;8.18;;
55312;SDS011;46892;45.668;11.756;2023-08-20T07:23:54;11.65;;;7.78;;
55312;SDS011;46892;45.668;11.756;2023-08-20T07:26:20;10.57;;;8.43;;
55312;SDS011;46892;45.668;11.756;2023-08-20T07:28:46;12.32;;;8.23;;
55312;SDS011;46892;45.668;11.756;2023-08-20T07:31:21;11.68;;;8.52;;
55312;SDS011;46892;45.668;11.756;2023-08-20T07:33:48;9.10;;;7.50;;
55312;SDS011;46892;45.668;11.756;2023-08-20T07:36:15;8.45;;;7.45;;
55312;SDS011;46892;45.668;11.756;2023-08-20T07:38:41;10.70;;;7.70;;
55312;SDS011;46892;45.668;11.756;2023-08-20T07:41:11;9.52;;;7.78;;
55312;SDS011;46892;45.668;11.756;2023-08-20T07:43:37;9.88;;;8.45;;
55312;SDS011;46892;45.668;11.756;2023-08-20T07:46:04;8.40;;;7.60;;
55312;SDS011;46892;45.668;11.756;2023-08-20T07:48:30;9.50;;;7.78;;
55312;SDS011;46892;45.668;11.756;2023-08-20T07:50:56;9.43;;;8.27;;
55312;SDS011;46892;45.668;11.756;2023-08-20T07:53:22;9.00;;;7.88;;
55312;SDS011;46892;45.668;11.756;2023-08-20T07:55:48;10.63;;;8.20;;
55312;SDS011;46892;45.668;11.756;2023-08-20T07:58:14;9.10;;;7.93;;
55312;SDS011;46892;45.668;11.756;2023-08-20T08:00:40;10.00;;;9.00;;
55312;SDS011;46892;45.668;11.756;2023-08-20T08:03:06;8.88;;;7.68;;
55312;SDS011;46892;45.668;11.756;2023-08-20T08:05:31;10.93;;;9.10;;
55312;SDS011;46892;45.668;11.756;2023-08-20T08:07:57;9.05;;;8.07;;
55312;SDS011;46892;45.668;11.756;2023-08-20T08:10:23;9.45;;;8.45;;
55312;SDS011;46892;45.668;11.756;2023-08-20T08:12:49;8.85;;;7.93;;
55312;SDS011;46892;45.668;11.756;2023-08-20T08:15:14;9.55;;;8.30;;
55312;SDS011;46892;45.668;11.756;2023-08-20T08:17:40;9.15;;;8.05;;
55312;SDS011;46892;45.668;11.756;2023-08-20T08:20:06;9.65;;;7.85;;
55312;SDS011;46892;45.668;11.756;2023-08-20T08:22:32;8.98;;;8.07;;
55312;SDS011;46892;45.668;11.756;2023-08-20T08:24:58;10.57;;;7.78;;
55312;SDS011;46892;45.668;11.756;2023-08-20T08:27:24;10.18;;;7.97;;
55312;SDS011;46892;45.668;11.756;2023-08-20T08:29:50;12.75;;;8.48;;
55312;SDS011;46892;45.668;11.756;2023-08-20T08:32:16;9.68;;;8.02;;
55312;SDS011;46892;45.668;11.756;2023-08-20T08:34:42;9.43;;;8.27;;
55312;SDS011;46892;45.668;11.756;2023-08-20T08:37:07;11.27;;;7.93;;
55312;SDS011;46892;45.668;11.756;2023-08-20T08:39:33;8.45;;;7.55;;
55312;SDS011;46892;45.668;11.756;2023-08-20T08:42:03;8.85;;;7.80;;
55312;SDS011;46892;45.668;11.756;2023-08-20T08:44:31;9.73;;;8.50;;
55312;SDS011;46892;45.668;11.756;2023-08-20T08:47:04;9.00;;;8.10;;
55312;SDS011;46892;45.668;11.756;2023-08-20T08:49:33;9.00;;;8.10;;
55312;SDS011;46892;45.668;11.756;2023-08-20T08:51:59;8.98;;;7.93;;
55312;SDS011;46892;45.668;11.756;2023-08-20T08:54:26;9.00;;;8.10;;
55312;SDS011;46892;45.668;11.756;2023-08-20T08:56:52;8.82;;;7.65;;
55312;SDS011;46892;45.668;11.756;2023-08-20T08:59:18;9.25;;;8.25;;
55312;SDS011;46892;45.668;11.756;2023-08-20T09:01:45;11.15;;;7.70;;
55312;SDS011;46892;45.668;11.756;2023-08-20T09:04:11;9.68;;;8.02;;
55312;SDS011;46892;45.668;11.756;2023-08-20T09:06:47;9.38;;;8.32;;
55312;SDS011;46892;45.668;11.756;2023-08-20T09:09:14;9.02;;;7.50;;
55312;SDS011;46892;45.668;11.756;2023-08-20T09:11:41;8.93;;;7.53;;
55312;SDS011;46892;45.668;11.756;2023-08-20T09:14:07;11.98;;;8.32;;
55312;SDS011;46892;45.668;11.756;2023-08-20T09:16:33;12.02;;;8.45;;
55312;SDS011;46892;45.668;11.756;2023-08-20T09:18:59;9.32;;;7.63;;
55312;SDS011;46892;45.668;11.756;2023-08-20T09:21:27;9.27;;;7.70;;
55312;SDS011;46892;45.668;11.756;2023-08-20T09:23:56;12.82;;;8.50;;
55312;SDS011;46892;45.668;11.756;2023-08-20T09:26:23;13.50;;;8.07;;
55312;SDS011;46892;45.668;11.756;2023-08-20T09:28:48;9.32;;;8.05;;
55312;SDS011;46892;45.668;11.756;2023-08-20T09:31:14;10.48;;;8.15;;
55312;SDS011;46892;45.668;11.756;2023-08-20T09:33:48;9.23;;;8.30;;
55312;SDS011;46892;45.668;11.756;2023-08-20T09:36:17;9.18;;;8.27;;
55312;SDS011;46892;45.668;11.756;2023-08-20T09:38:43;8.85;;;7.78;;
55312;SDS011;46892;45.668;11.756;2023-08-20T09:41:09;10.07;;;8.20;;
55312;SDS011;46892;45.668;11.756;2023-08-20T09:43:38;9.95;;;7.55;;
55312;SDS011;46892;45.668;11.756;2023-08-20T09:46:05;9.35;;;8.10;;
55312;SDS011;46892;45.668;11.756;2023-08-20T09:48:34;9.43;;;7.95;;
55312;SDS011;46892;45.668;11.756;2023-08-20T09:51:11;8.48;;;7.60;;
55312;SDS011;46892;45.668;11.756;2023-08-20T09:53:39;8.68;;;7.57;;
55312;SDS011;46892;45.668;11.756;2023-08-20T09:56:35;8.98;;;7.75;;
55312;SDS011;46892;45.668;11.756;2023-08-20T09:59:02;10.73;;;7.85;;
55312;SDS011;46892;45.668;11.756;2023-08-20T10:01:29;9.30;;;8.32;;
55312;SDS011;46892;45.668;11.756;2023-08-20T10:03:55;8.77;;;7.88;;
55312;SDS011;46892;45.668;11.756;2023-08-20T10:06:22;8.98;;;7.53;;
55312;SDS011;46892;45.668;11.756;2023-08-20T10:08:50;9.02;;;7.47;;
55312;SDS011;46892;45.668;11.756;2023-08-20T10:11:16;7.53;;;6.82;;
55312;SDS011;46892;45.668;11.756;2023-08-20T10:13:42;9.07;;;8.10;;
55312;SDS011;46892;45.668;11.756;2023-08-20T10:16:11;9.95;;;7.65;;
55312;SDS011;46892;45.668;11.756;2023-08-20T10:18:38;11.73;;;7.13;;
55312;SDS011;46892;45.668;11.756;2023-08-20T10:21:04;8.95;;;6.93;;
55312;SDS011;46892;45.668;11.756;2023-08-20T10:23:32;10.07;;;7.30;;
55312;SDS011;46892;45.668;11.756;2023-08-20T10:26:08;7.47;;;6.63;;
55312;SDS011;46892;45.668;11.756;2023-08-20T10:28:35;9.43;;;6.63;;
55312;SDS011;46892;45.668;11.756;2023-08-20T10:33:34;8.55;;;6.13;;
55312;SDS011;46892;45.668;11.756;2023-08-20T10:36:07;7.63;;;6.03;;
55312;SDS011;46892;45.668;11.756;2023-08-20T10:38:35;8.02;;;6.75;;
55312;SDS011;46892;45.668;11.756;2023-08-20T10:41:04;9.95;;;6.35;;
55312;SDS011;46892;45.668;11.756;2023-08-20T10:48:46;9.40;;;6.80;;
55312;SDS011;46892;45.668;11.756;2023-08-20T10:59:16;9.65;;;7.68;;
55312;SDS011;46892;45.668;11.756;2023-08-20T11:01:47;8.70;;;7.13;;
55312;SDS011;46892;45.668;11.756;2023-08-20T11:04:18;7.93;;;7.07;;
55312;SDS011;46892;45.668;11.756;2023-08-20T11:06:45;8.45;;;7.47;;
55312;SDS011;46892;45.668;11.756;2023-08-20T11:09:14;10.38;;;7.80;;
55312;SDS011;46892;45.668;11.756;2023-08-20T11:11:40;8.63;;;7.75;;
55312;SDS011;46892;45.668;11.756;2023-08-20T11:14:07;8.60;;;7.40;;
55312;SDS011;46892;45.668;11.756;2023-08-20T11:16:39;9.73;;;7.15;;
55312;SDS011;46892;45.668;11.756;2023-08-20T11:19:06;9.20;;;7.15;;
55312;SDS011;46892;45.668;11.756;2023-08-20T11:21:37;8.93;;;7.28;;
55312;SDS011;46892;45.668;11.756;2023-08-20T11:24:04;9.57;;;7.40;;
55312;SDS011;46892;45.668;11.756;2023-08-20T11:26:31;8.05;;;7.25;;
55312;SDS011;46892;45.668;11.756;2023-08-20T11:28:58;8.00;;;7.05;;
55312;SDS011;46892;45.668;11.756;2023-08-20T11:31:25;7.63;;;6.50;;
55312;SDS011;46892;45.668;11.756;2023-08-20T11:33:51;8.05;;;7.13;;
55312;SDS011;46892;45.668;11.756;2023-08-20T11:36:17;7.75;;;6.88;;
55312;SDS011;46892;45.668;11.756;2023-08-20T11:38:51;8.15;;;7.35;;
55312;SDS011;46892;45.668;11.756;2023-08-20T11:41:21;7.53;;;6.70;;
55312;SDS011;46892;45.668;11.756;2023-08-20T11:46:18;7.85;;;7.05;;
55312;SDS011;46892;45.668;11.756;2023-08-20T11:49:04;7.47;;;6.70;;
55312;SDS011;46892;45.668;11.756;2023-08-20T11:54:02;8.18;;;6.30;;
55312;SDS011;46892;45.668;11.756;2023-08-20T11:56:32;8.07;;;6.85;;
55312;SDS011;46892;45.668;11.756;2023-08-20T11:58:58;13.38;;;6.90;;
55312;SDS011;46892;45.668;11.756;2023-08-20T12:01:25;33.53;;;9.15;;
55312;SDS011;46892;45.668;11.756;2023-08-20T12:03:51;10.40;;;7.07;;
55312;SDS011;46892;45.668;11.756;2023-08-20T12:06:20;7.45;;;6.28;;
55312;SDS011;46892;45.668;11.756;2023-08-20T12:08:50;7.00;;;6.30;;
55312;SDS011;46892;45.668;11.756;2023-08-20T12:11:15;7.78;;;6.65;;
55312;SDS011;46892;45.668;11.756;2023-08-20T12:13:42;6.85;;;6.07;;
55312;SDS011;46892;45.668;11.756;2023-08-20T12:16:07;7.65;;;6.85;;
55312;SDS011;46892;45.668;11.756;2023-08-20T12:18:33;7.00;;;6.30;;
55312;SDS011;46892;45.668;11.756;2023-08-20T12:20:59;6.97;;;6.13;;
55312;SDS011;46892;45.668;11.756;2023-08-20T12:23:25;8.38;;;6.43;;
55312;SDS011;46892;45.668;11.756;2023-08-20T12:25:51;7.95;;;7.10;;
55312;SDS011;46892;45.668;11.756;2023-08-20T12:28:17;9.63;;;7.20;;
55312;SDS011;46892;45.668;11.756;2023-08-20T12:30:43;8.18;;;6.38;;
55312;SDS011;46892;45.668;11.756;2023-08-20T12:33:10;9.52;;;6.50;;
55312;SDS011;46892;45.668;11.756;2023-08-20T12:35:36;7.82;;;7.03;;
55312;SDS011;46892;45.668;11.756;2023-08-20T12:38:02;7.82;;;6.35;;
55312;SDS011;46892;45.668;11.756;2023-08-20T12:40:28;9.18;;;7.07;;
55312;SDS011;46892;45.668;11.756;2023-08-20T12:42:56;9.20;;;7.05;;
55312;SDS011;46892;45.668;11.756;2023-08-20T12:45:22;7.70;;;6.65;;
55312;SDS011;46892;45.668;11.756;2023-08-20T12:47:47;7.53;;;6.75;;
55312;SDS011;46892;45.668;11.756;2023-08-20T12:50:13;7.97;;;7.18;;
55312;SDS011;46892;45.668;11.756;2023-08-20T12:52:39;9.73;;;7.22;;
55312;SDS011;46892;45.668;11.756;2023-08-20T12:55:06;8.13;;;6.82;;
55312;SDS011;46892;45.668;11.756;2023-08-20T12:57:35;7.50;;;6.70;;
55312;SDS011;46892;45.668;11.756;2023-08-20T13:00:01;6.93;;;6.22;;
55312;SDS011;46892;45.668;11.756;2023-08-20T13:02:35;6.53;;;5.90;;
55312;SDS011;46892;45.668;11.756;2023-08-20T13:05:01;7.10;;;6.38;;
55312;SDS011;46892;45.668;11.756;2023-08-20T13:07:28;7.78;;;6.40;;
55312;SDS011;46892;45.668;11.756;2023-08-20T13:09:53;8.05;;;6.13;;
55312;SDS011;46892;45.668;11.756;2023-08-20T13:12:19;8.35;;;6.60;;
55312;SDS011;46892;45.668;11.756;2023-08-20T13:14:51;7.90;;;7.10;;
55312;SDS011;46892;45.668;11.756;2023-08-20T13:17:17;6.93;;;6.22;;
55312;SDS011;46892;45.668;11.756;2023-08-20T13:19:43;8.00;;;6.70;;
55312;SDS011;46892;45.668;11.756;2023-08-20T13:22:09;7.03;;;6.20;;
55312;SDS011;46892;45.668;11.756;2023-08-20T13:24:35;7.10;;;6.40;;
55312;SDS011;46892;45.668;11.756;2023-08-20T13:27:00;7.75;;;6.28;;
55312;SDS011;46892;45.668;11.756;2023-08-20T13:29:26;7.38;;;6.22;;
55312;SDS011;46892;45.668;11.756;2023-08-20T13:31:52;7.00;;;6.30;;
55312;SDS011;46892;45.668;11.756;2023-08-20T13:34:18;8.13;;;6.45;;
55312;SDS011;46892;45.668;11.756;2023-08-20T13:36:44;8.32;;;6.85;;
55312;SDS011;46892;45.668;11.756;2023-08-20T13:39:09;6.55;;;5.95;;
55312;SDS011;46892;45.668;11.756;2023-08-20T13:41:38;7.53;;;6.53;;
55312;SDS011;46892;45.668;11.756;2023-08-20T13:44:05;9.07;;;7.05;;
55312;SDS011;46892;45.668;11.756;2023-08-20T13:46:32;9.93;;;6.60;;
55312;SDS011;46892;45.668;11.756;2023-08-20T13:48:58;7.32;;;6.63;;
55312;SDS011;46892;45.668;11.756;2023-08-20T13:51:24;7.80;;;6.28;;
55312;SDS011;46892;45.668;11.756;2023-08-20T13:53:50;7.57;;;5.93;;
55312;SDS011;46892;45.668;11.756;2023-08-20T13:56:16;11.32;;;6.88;;
55312;SDS011;46892;45.668;11.756;2023-08-20T13:58:42;7.03;;;6.22;;
55312;SDS011;46892;45.668;11.756;2023-08-20T14:01:08;7.03;;;5.97;;
55312;SDS011;46892;45.668;11.756;2023-08-20T14:03:34;7.40;;;6.63;;
55312;SDS011;46892;45.668;11.756;2023-08-20T14:06:00;7.50;;;6.50;;
55312;SDS011;46892;45.668;11.756;2023-08-20T14:08:26;7.35;;;6.15;;
55312;SDS011;46892;45.668;11.756;2023-08-20T14:10:51;6.82;;;6.05;;
55312;SDS011;46892;45.668;11.756;2023-08-20T14:13:17;8.98;;;6.40;;
55312;SDS011;46892;45.668;11.756;2023-08-20T14:15:43;9.40;;;5.82;;
55312;SDS011;46892;45.668;11.756;2023-08-20T14:18:08;8.88;;;5.65;;
55312;SDS011;46892;45.668;11.756;2023-08-20T14:20:34;7.22;;;6.03;;
55312;SDS011;46892;45.668;11.756;2023-08-20T14:23:00;7.15;;;6.00;;
55312;SDS011;46892;45.668;11.756;2023-08-20T14:25:26;6.85;;;5.68;;
55312;SDS011;46892;45.668;11.756;2023-08-20T14:27:51;8.35;;;6.18;;
55312;SDS011;46892;45.668;11.756;2023-08-20T14:30:17;7.00;;;5.88;;
55312;SDS011;46892;45.668;11.756;2023-08-20T14:32:43;7.07;;;5.80;;
55312;SDS011;46892;45.668;11.756;2023-08-20T14:35:09;7.53;;;6.10;;
55312;SDS011;46892;45.668;11.756;2023-08-20T14:37:35;7.07;;;6.32;;
55312;SDS011;46892;45.668;11.756;2023-08-20T14:40:01;10.85;;;6.32;;
55312;SDS011;46892;45.668;11.756;2023-08-20T14:42:30;7.70;;;6.03;;
55312;SDS011;46892;45.668;11.756;2023-08-20T14:44:56;8.38;;;6.47;;
55312;SDS011;46892;45.668;11.756;2023-08-20T14:47:22;8.23;;;5.93;;
55312;SDS011;46892;45.668;11.756;2023-08-20T14:49:48;6.43;;;5.70;;
55312;SDS011;46892;45.668;11.756;2023-08-20T14:52:14;6.88;;;6.03;;